Time;durP1;ratioP1;P1;durP2;ratioP2;P2;SDS_P1;SDS_P2;PMS_P1;PMS_P2;Temp;Humidity;BMP_temperature;BMP_pressure;BME280_temperature;BME280_humidity;BME280_pressure;Samples;Min_cycle;Max_cycle;Signal;HPM_P1;HPM_P2
2021/06/07 00:02:04;;;;;;;3.90;2.17;;;17.00;98.00;;;;;;5069588;28;20849;-72
2021/06/07 00:04:31;;;;;;;1.93;1.50;;;17.10;98.00;;;;;;5072440;28;20457;-71
2021/06/07 00:06:59;;;;;;;1.67;1.47;;;17.10;98.00;;;;;;5069281;28;20457;-72
2021/06/07 00:09:28;;;;;;;1.20;1.20;;;17.00;98.00;;;;;;5072071;28;20455;-70
2021/06/07 00:11:57;;;;;;;2.33;1.43;;;17.00;98.00;;;;;;5069601;28;20457;-71
2021/06/07 00:14:27;;;;;;;3.40;1.60;;;17.00;98.00;;;;;;5072613;28;20904;-72
2021/06/07 00:16:54;;;;;;;1.37;1.23;;;17.10;98.00;;;;;;5070371;28;20468;-71
2021/06/07 00:19:22;;;;;;;1.30;1.30;;;17.10;98.00;;;;;;5072372;28;20557;-71
2021/06/07 00:21:49;;;;;;;1.80;1.40;;;17.20;98.00;;;;;;5068822;28;20475;-71
2021/06/07 00:24:17;;;;;;;2.70;2.00;;;17.30;98.00;;;;;;5072134;28;20480;-71
2021/06/07 00:26:45;;;;;;;2.33;1.77;;;17.30;98.00;;;;;;5068311;28;20946;-71
2021/06/07 00:29:12;;;;;;;2.07;1.50;;;17.20;98.00;;;;;;5072092;28;20938;-71
2021/06/07 00:31:39;;;;;;;1.73;1.63;;;17.20;98.00;;;;;;5069454;28;20499;-72
2021/06/07 00:34:07;;;;;;;1.30;1.30;;;17.20;98.00;;;;;;5072063;28;20456;-71
2021/06/07 00:36:34;;;;;;;1.20;1.17;;;17.10;98.00;;;;;;5069308;28;20523;-72
2021/06/07 00:39:01;;;;;;;1.93;1.40;;;17.00;98.00;;;;;;5071988;28;20493;-71
2021/06/07 00:41:30;;;;;;;4.00;2.37;;;17.00;98.00;;;;;;5069433;28;20477;-71
2021/06/07 00:44:00;;;;;;;1.87;1.67;;;17.10;98.00;;;;;;5071774;28;20496;-71
2021/06/07 00:46:31;;;;;;;2.03;1.90;;;17.10;98.00;;;;;;5069200;28;20492;-71
2021/06/07 00:48:58;;;;;;;5.60;2.13;;;17.10;98.00;;;;;;5070086;28;20464;-71
2021/06/07 00:51:25;;;;;;;2.20;2.10;;;17.00;98.00;;;;;;5068085;28;20457;-71
2021/06/07 00:53:51;;;;;;;1.57;1.50;;;17.00;98.00;;;;;;5070768;28;20814;-71
2021/06/07 00:56:18;;;;;;;1.50;1.47;;;17.00;98.00;;;;;;5071576;28;20483;-71
2021/06/07 00:58:47;;;;;;;1.93;1.90;;;17.10;98.00;;;;;;5068273;28;20523;-71
2021/06/07 01:01:18;;;;;;;1.60;1.50;;;17.10;98.00;;;;;;5071558;28;20495;-71
2021/06/07 01:03:47;;;;;;;5.10;1.83;;;17.10;98.00;;;;;;5069664;28;20812;-70
2021/06/07 01:06:14;;;;;;;1.40;1.40;;;17.10;98.00;;;;;;5070167;28;20448;-71
2021/06/07 01:08:41;;;;;;;1.83;1.80;;;17.00;98.00;;;;;;5069052;28;20460;-71
2021/06/07 01:11:08;;;;;;;3.00;1.80;;;17.00;98.00;;;;;;5070217;28;20958;-71
2021/06/07 01:13:35;;;;;;;2.93;1.90;;;17.10;98.00;;;;;;5069554;28;20453;-70
2021/06/07 01:16:02;;;;;;;1.77;1.63;;;17.00;98.00;;;;;;5071354;28;20571;-70
2021/06/07 01:18:31;;;;;;;1.53;1.37;;;17.00;98.00;;;;;;5068745;28;20506;-71
2021/06/07 01:21:01;;;;;;;1.23;1.23;;;17.00;98.00;;;;;;5071632;28;20471;-71
2021/06/07 01:23:29;;;;;;;1.23;1.17;;;17.00;98.00;;;;;;5068917;28;20456;-71
2021/06/07 01:25:58;;;;;;;2.23;1.73;;;17.00;98.00;;;;;;5071401;28;20495;-71
2021/06/07 01:28:25;;;;;;;1.93;1.40;;;17.00;98.00;;;;;;5068484;28;20448;-71
2021/06/07 01:30:54;;;;;;;3.30;2.03;;;17.00;98.00;;;;;;5071370;28;20538;-71
2021/06/07 01:33:22;;;;;;;2.23;1.53;;;16.90;98.00;;;;;;5069126;28;20468;-71
2021/06/07 01:35:50;;;;;;;1.70;1.43;;;16.90;98.00;;;;;;5071091;28;20508;-71
2021/06/07 01:38:17;;;;;;;1.93;1.73;;;16.80;98.00;;;;;;5068800;28;20489;-71
2021/06/07 01:40:46;;;;;;;3.17;1.90;;;16.80;98.00;;;;;;5071104;28;20457;-71
2021/06/07 01:43:13;;;;;;;2.50;1.73;;;16.80;98.00;;;;;;5068971;28;20453;-70
2021/06/07 01:45:42;;;;;;;1.60;1.57;;;16.80;98.00;;;;;;5069894;28;20460;-71
2021/06/07 01:48:12;;;;;;;1.10;1.10;;;16.70;98.00;;;;;;5068873;28;20492;-71
2021/06/07 01:50:39;;;;;;;1.47;1.37;;;16.70;98.00;;;;;;5069796;28;20453;-71
2021/06/07 01:53:08;;;;;;;4.07;2.30;;;16.70;98.00;;;;;;5068201;28;20547;-71
2021/06/07 01:55:36;;;;;;;2.47;2.30;;;16.70;98.00;;;;;;5070864;28;20485;-72
2021/06/07 01:58:05;;;;;;;2.03;1.73;;;16.70;98.00;;;;;;5070655;28;20592;-71
2021/06/07 02:00:45;;;;;;;1.90;1.83;;;16.60;98.00;;;;;;5074660;28;20449;-71
2021/06/07 02:03:13;;;;;;;1.50;1.40;;;16.50;98.00;;;;;;5071949;28;20448;-71
2021/06/07 02:05:41;;;;;;;2.90;1.57;;;16.50;98.00;;;;;;5074622;28;21129;-71
2021/06/07 02:08:11;;;;;;;2.17;1.57;;;16.50;98.00;;;;;;5072351;28;20456;-71
2021/06/07 02:10:40;;;;;;;7.93;2.87;;;16.50;98.00;;;;;;5074857;28;20469;-71
2021/06/07 02:13:10;;;;;;;1.60;1.50;;;16.60;98.00;;;;;;5070174;28;20518;-71
2021/06/07 02:15:37;;;;;;;1.70;1.47;;;16.60;98.00;;;;;;5074655;28;20975;-71
2021/06/07 02:18:05;;;;;;;1.90;1.47;;;16.70;98.00;;;;;;5071912;28;20461;-70
2021/06/07 02:20:32;;;;;;;1.60;1.27;;;16.70;98.00;;;;;;5074483;28;20563;-71
2021/06/07 02:22:59;;;;;;;1.30;1.20;;;16.70;98.00;;;;;;5071262;28;20469;-71
2021/06/07 02:25:28;;;;;;;1.87;1.87;;;16.70;98.00;;;;;;5073245;28;20452;-71
2021/06/07 02:27:54;;;;;;;1.30;1.30;;;16.80;98.00;;;;;;5071819;28;20506;-71
2021/06/07 02:30:25;;;;;;;2.33;1.80;;;16.80;98.00;;;;;;5074338;28;20503;-71
2021/06/07 02:32:54;;;;;;;2.03;1.30;;;16.80;98.00;;;;;;5069566;28;20521;-71
2021/06/07 02:35:22;;;;;;;6.00;1.97;;;16.90;98.00;;;;;;5072896;28;20559;-70
2021/06/07 02:37:50;;;;;;;1.97;1.40;;;16.90;98.00;;;;;;5070244;28;20811;-71
2021/06/07 02:40:19;;;;;;;2.33;1.73;;;16.90;98.00;;;;;;5074116;28;20464;-71
2021/06/07 02:42:46;;;;;;;2.53;2.33;;;16.90;98.00;;;;;;5070488;28;20488;-72
2021/06/07 02:45:15;;;;;;;1.30;1.20;;;16.80;98.00;;;;;;5074061;28;20514;-71
2021/06/07 02:47:44;;;;;;;1.80;1.40;;;16.80;98.00;;;;;;5070720;28;20817;-71
2021/06/07 02:50:15;;;;;;;1.43;1.20;;;16.70;98.00;;;;;;5073909;28;20829;-70
2021/06/07 02:52:47;;;;;;;1.30;1.10;;;16.70;98.00;;;;;;5071550;28;20457;-70
2021/06/07 02:55:17;;;;;;;1.93;1.53;;;16.70;98.00;;;;;;5073825;28;20484;-70
2021/06/07 02:57:43;;;;;;;2.20;1.97;;;16.70;98.00;;;;;;5070620;28;20965;-70
2021/06/07 03:00:14;;;;;;;1.70;1.60;;;16.70;98.00;;;;;;5073568;28;20553;-71
2021/06/07 03:02:42;;;;;;;1.53;1.50;;;16.70;98.00;;;;;;5071218;28;20522;-71
2021/06/07 03:05:09;;;;;;;3.00;1.70;;;16.70;98.00;;;;;;5072775;28;20452;-71
2021/06/07 03:07:36;;;;;;;1.97;1.70;;;16.70;98.00;;;;;;5070871;28;20453;-71
2021/06/07 03:10:04;;;;;;;1.73;1.50;;;16.70;98.00;;;;;;5073842;28;20531;-71
2021/06/07 03:12:31;;;;;;;2.57;1.63;;;16.70;98.00;;;;;;5070844;28;20522;-71
2021/06/07 03:14:57;;;;;;;1.63;1.57;;;16.70;98.00;;;;;;5073500;28;20461;-70
2021/06/07 03:17:24;;;;;;;2.30;1.80;;;16.70;98.00;;;;;;5070626;28;20503;-70
2021/06/07 03:19:52;;;;;;;2.70;1.53;;;16.80;98.00;;;;;;5073327;28;20542;-70
2021/06/07 03:22:21;;;;;;;2.43;2.03;;;16.80;98.00;;;;;;5070786;28;20481;-71
2021/06/07 03:24:48;;;;;;;1.50;1.40;;;16.70;98.00;;;;;;5073008;28;20510;-71
2021/06/07 03:27:14;;;;;;;1.87;1.60;;;16.70;98.00;;;;;;5069237;28;20522;-71
2021/06/07 03:29:41;;;;;;;2.07;1.80;;;16.70;98.00;;;;;;5073192;28;20507;-71
2021/06/07 03:32:08;;;;;;;2.03;1.60;;;16.60;98.00;;;;;;5068554;28;20825;-71
2021/06/07 03:34:35;;;;;;;2.47;1.50;;;16.70;98.00;;;;;;5072839;28;20507;-71
2021/06/07 03:37:04;;;;;;;1.93;1.53;;;16.60;98.00;;;;;;5070279;28;20488;-71
2021/06/07 03:39:30;;;;;;;1.37;1.20;;;16.70;98.00;;;;;;5072928;28;20479;-70
2021/06/07 03:41:57;;;;;;;2.43;1.57;;;16.70;98.00;;;;;;5070198;28;20481;-71
2021/06/07 03:44:23;;;;;;;1.47;1.20;;;16.80;98.00;;;;;;5072811;28;20567;-71
2021/06/07 03:46:50;;;;;;;2.30;1.63;;;16.70;98.00;;;;;;5070084;28;20455;-71
2021/06/07 03:49:17;;;;;;;1.63;1.50;;;16.70;98.00;;;;;;5073089;28;20451;-71
2021/06/07 03:51:43;;;;;;;1.70;1.67;;;16.70;98.00;;;;;;5068846;28;20502;-72
2021/06/07 03:54:11;;;;;;;3.37;1.83;;;16.60;98.00;;;;;;5072976;28;20856;-71
2021/06/07 03:56:38;;;;;;;1.60;1.50;;;16.60;98.00;;;;;;5072105;28;20554;-72
2021/06/07 03:59:05;;;;;;;1.97;1.57;;;16.50;98.00;;;;;;5070664;28;20530;-71
2021/06/07 04:01:31;;;;;;;2.07;1.83;;;16.50;98.00;;;;;;5072761;28;20485;-71
2021/06/07 04:03:58;;;;;;;1.57;1.43;;;16.50;98.00;;;;;;5069512;28;20457;-72
2021/06/07 04:06:24;;;;;;;1.50;1.30;;;16.60;98.00;;;;;;5072500;28;20464;-71
2021/06/07 04:08:56;;;;;;;3.33;1.77;;;16.70;98.00;;;;;;5069858;28;20464;-71
2021/06/07 04:11:24;;;;;;;1.53;1.43;;;16.60;98.00;;;;;;5072417;28;20452;-71
2021/06/07 04:13:50;;;;;;;2.27;2.07;;;16.60;98.00;;;;;;5069782;28;20588;-72
2021/06/07 04:16:17;;;;;;;1.43;1.37;;;16.60;98.00;;;;;;5072237;28;20523;-71
2021/06/07 04:18:43;;;;;;;2.80;2.07;;;16.50;98.00;;;;;;5069388;28;20488;-71
2021/06/07 04:21:10;;;;;;;2.10;1.60;;;16.60;98.00;;;;;;5071580;28;20456;-71
2021/06/07 04:23:37;;;;;;;1.20;1.10;;;16.70;98.00;;;;;;5069490;28;20468;-71
2021/06/07 04:26:04;;;;;;;3.13;1.47;;;16.70;98.00;;;;;;5070625;28;20463;-71
2021/06/07 04:28:33;;;;;;;1.70;1.10;;;16.70;98.00;;;;;;5068361;28;21000;-71
2021/06/07 04:31:00;;;;;;;2.43;1.73;;;16.60;98.00;;;;;;5072049;28;20500;-71
2021/06/07 04:33:26;;;;;;;1.73;1.47;;;16.60;98.00;;;;;;5068076;28;20495;-71
2021/06/07 04:35:53;;;;;;;1.93;1.53;;;16.50;98.00;;;;;;5071968;28;20919;-72
2021/06/07 04:38:19;;;;;;;1.20;1.20;;;16.50;98.00;;;;;;5069456;28;20514;-71
2021/06/07 04:40:46;;;;;;;1.10;1.00;;;16.50;98.00;;;;;;5072027;28;20464;-71
2021/06/07 04:43:14;;;;;;;3.00;2.70;;;16.50;98.00;;;;;;5068209;28;20985;-71
2021/06/07 04:45:44;;;;;;;1.57;1.20;;;16.50;98.00;;;;;;5071946;28;20445;-71
2021/06/07 04:48:11;;;;;;;4.37;1.93;;;16.50;98.00;;;;;;5068899;28;20488;-71
2021/06/07 04:50:39;;;;;;;1.37;1.33;;;16.60;98.00;;;;;;5071782;28;20488;-71
2021/06/07 04:53:08;;;;;;;2.83;1.53;;;16.60;98.00;;;;;;5069065;28;20459;-70
2021/06/07 04:55:37;;;;;;;1.57;1.37;;;16.50;98.00;;;;;;5071622;28;20487;-71
2021/06/07 04:58:06;;;;;;;1.53;1.43;;;16.50;98.00;;;;;;5068833;28;20939;-71
2021/06/07 05:00:33;;;;;;;3.00;1.47;;;16.40;98.00;;;;;;5070468;28;20488;-71
2021/06/07 05:03:01;;;;;;;2.37;1.53;;;16.50;98.00;;;;;;5068979;28;20893;-71
2021/06/07 05:05:28;;;;;;;3.10;1.57;;;16.50;98.00;;;;;;5071508;28;20488;-71
2021/06/07 05:07:55;;;;;;;2.83;2.07;;;16.50;98.00;;;;;;5068735;28;20488;-71
2021/06/07 05:10:22;;;;;;;1.57;1.53;;;16.40;98.00;;;;;;5071395;28;20580;-71
2021/06/07 05:12:48;;;;;;;8.70;2.20;;;16.40;98.00;;;;;;5069100;28;20870;-72
2021/06/07 05:15:16;;;;;;;2.07;1.63;;;16.30;98.00;;;;;;5071133;28;20519;-72
2021/06/07 05:17:43;;;;;;;2.40;2.00;;;16.30;98.00;;;;;;5068578;28;20490;-72
2021/06/07 05:20:15;;;;;;;2.33;1.63;;;16.20;98.00;;;;;;5070083;28;20503;-72
2021/06/07 05:22:41;;;;;;;7.23;3.00;;;16.40;98.00;;;;;;5069189;28;20473;-72
2021/06/07 05:25:09;;;;;;;1.93;1.60;;;16.50;98.00;;;;;;5071228;28;20535;-71
2021/06/07 05:27:36;;;;;;;2.87;2.00;;;16.40;98.00;;;;;;5068795;28;20545;-71
2021/06/07 05:30:04;;;;;;;3.63;1.70;;;16.30;98.00;;;;;;5069914;28;21106;-71
2021/06/07 05:32:31;;;;;;;8.53;2.50;;;16.30;98.00;;;;;;5070361;28;20792;-71
2021/06/07 05:34:59;;;;;;;2.03;1.57;;;16.30;98.00;;;;;;5075434;28;20455;-71
2021/06/07 05:37:35;;;;;;;2.40;1.93;;;16.40;98.00;;;;;;5073069;28;20464;-71
2021/06/07 05:40:02;;;;;;;2.27;2.10;;;16.30;98.00;;;;;;5074074;28;20491;-71
2021/06/07 05:42:28;;;;;;;2.17;2.00;;;16.30;98.00;;;;;;5072617;28;20466;-70
2021/06/07 05:44:55;;;;;;;2.43;1.67;;;16.20;98.00;;;;;;5075323;28;20488;-71
2021/06/07 05:47:22;;;;;;;1.70;1.60;;;16.20;98.00;;;;;;5072383;28;20460;-70
2021/06/07 05:49:48;;;;;;;1.20;1.20;;;16.30;98.00;;;;;;5075034;28;20467;-72
2021/06/07 05:52:14;;;;;;;2.70;1.63;;;16.30;98.00;;;;;;5072532;28;20517;-70
2021/06/07 05:54:43;;;;;;;2.30;1.53;;;16.30;98.00;;;;;;5074910;28;20453;-72
2021/06/07 05:57:11;;;;;;;1.67;1.60;;;16.40;98.00;;;;;;5071918;28;20542;-71
2021/06/07 05:59:37;;;;;;;1.50;1.40;;;16.40;98.00;;;;;;5074669;28;20876;-71
2021/06/07 06:02:05;;;;;;;1.50;1.40;;;16.40;98.00;;;;;;5071981;28;20449;-70
2021/06/07 06:04:33;;;;;;;1.40;1.33;;;16.40;98.00;;;;;;5074550;28;20539;-70
2021/06/07 06:06:59;;;;;;;2.53;1.97;;;16.30;98.00;;;;;;5071920;28;20496;-71
2021/06/07 06:09:26;;;;;;;2.07;1.83;;;16.40;98.00;;;;;;5074842;28;20578;-71
2021/06/07 06:11:54;;;;;;;4.67;2.10;;;16.30;98.00;;;;;;5073624;28;20454;-73
2021/06/07 06:14:21;;;;;;;1.60;1.37;;;16.40;98.00;;;;;;5074786;28;20468;-71
2021/06/07 06:16:48;;;;;;;1.60;1.50;;;16.50;98.00;;;;;;5074789;28;20487;-70
2021/06/07 06:19:14;;;;;;;1.60;1.50;;;16.50;98.00;;;;;;5071904;28;20463;-71
2021/06/07 06:21:42;;;;;;;2.33;1.63;;;16.50;98.00;;;;;;5074556;28;20513;-71
2021/06/07 06:24:10;;;;;;;1.57;1.47;;;16.50;98.00;;;;;;5071239;28;20488;-71
2021/06/07 06:26:40;;;;;;;1.40;1.40;;;16.50;98.00;;;;;;5074568;28;20462;-71
2021/06/07 06:29:08;;;;;;;2.07;1.50;;;16.50;98.00;;;;;;5071479;28;20471;-71
2021/06/07 06:31:35;;;;;;;1.67;1.57;;;16.50;98.00;;;;;;5074248;28;20456;-71
2021/06/07 06:34:03;;;;;;;1.30;1.10;;;16.50;98.00;;;;;;5071189;28;20502;-70
2021/06/07 06:36:29;;;;;;;1.80;1.50;;;16.50;98.00;;;;;;5074295;28;20476;-71
2021/06/07 06:38:56;;;;;;;1.23;1.17;;;16.60;98.00;;;;;;5070260;28;20479;-71
2021/06/07 06:41:24;;;;;;;1.70;1.40;;;16.50;98.00;;;;;;5073312;28;20452;-70
2021/06/07 06:43:50;;;;;;;2.00;1.17;;;16.50;98.00;;;;;;5069258;28;20539;-71
2021/06/07 06:46:18;;;;;;;1.67;1.57;;;16.60;98.00;;;;;;5073208;28;20485;-70
2021/06/07 06:48:45;;;;;;;2.37;1.20;;;16.50;98.00;;;;;;5071118;28;20455;-73
2021/06/07 06:51:11;;;;;;;1.43;1.33;;;16.60;98.00;;;;;;5073778;28;20464;-71
2021/06/07 06:53:38;;;;;;;1.20;1.10;;;16.80;98.00;;;;;;5071385;28;20465;-72
2021/06/07 06:56:05;;;;;;;2.07;1.40;;;17.20;98.00;;;;;;5074041;28;20499;-71
2021/06/07 06:58:31;;;;;;;2.90;1.60;;;17.50;98.00;;;;;;5070895;28;20471;-71
2021/06/07 07:00:58;;;;;;;1.70;1.10;;;17.90;98.00;;;;;;5073937;28;20492;-71
2021/06/07 07:03:26;;;;;;;1.70;1.20;;;18.20;98.00;;;;;;5071427;28;20460;-70
2021/06/07 07:05:54;;;;;;;1.77;1.30;;;18.10;98.00;;;;;;5073832;28;20851;-71
2021/06/07 07:08:21;;;;;;;1.63;1.50;;;18.20;98.00;;;;;;5070665;28;20476;-70
2021/06/07 07:10:48;;;;;;;2.07;1.80;;;18.40;98.00;;;;;;5072312;28;20445;-71
2021/06/07 07:13:15;;;;;;;1.50;1.20;;;18.10;98.00;;;;;;5070388;28;20453;-71
2021/06/07 07:15:42;;;;;;;1.40;1.23;;;18.00;98.00;;;;;;5073297;28;20821;-68
2021/06/07 07:18:10;;;;;;;2.17;1.63;;;17.90;98.00;;;;;;5070514;28;20457;-69
2021/06/07 07:20:41;;;;;;;1.40;1.20;;;17.60;98.00;;;;;;5071450;28;20974;-70
2021/06/07 07:23:08;;;;;;;1.30;1.20;;;17.40;98.00;;;;;;5067953;28;20453;-71
2021/06/07 07:25:38;;;;;;;1.63;1.63;;;17.40;98.00;;;;;;5072542;28;20931;-69
2021/06/07 07:28:07;;;;;;;1.97;1.60;;;17.20;98.00;;;;;;5069975;28;20460;-67
2021/06/07 07:30:34;;;;;;;1.90;1.47;;;17.10;98.00;;;;;;5072697;28;20448;-69
2021/06/07 07:33:02;;;;;;;1.37;1.20;;;17.10;98.00;;;;;;5068926;28;20460;-69
2021/06/07 07:35:29;;;;;;;1.60;1.40;;;17.00;98.00;;;;;;5072362;28;20480;-69
2021/06/07 07:37:57;;;;;;;1.47;1.40;;;17.10;98.00;;;;;;5069622;28;20503;-70
2021/06/07 07:40:25;;;;;;;2.90;1.30;;;17.10;98.00;;;;;;5072539;28;20460;-69
2021/06/07 07:42:53;;;;;;;1.20;1.20;;;17.20;98.00;;;;;;5069293;28;20894;-70
2021/06/07 07:45:24;;;;;;;1.27;1.10;;;17.30;98.00;;;;;;5072053;28;20478;-69
2021/06/07 07:47:50;;;;;;;4.07;1.60;;;17.30;98.00;;;;;;5068389;28;20506;-71
2021/06/07 07:50:19;;;;;;;2.60;1.87;;;17.20;98.00;;;;;;5070780;28;20491;-70
2021/06/07 07:52:46;;;;;;;1.10;1.00;;;17.30;98.00;;;;;;5067805;28;20449;-69
2021/06/07 07:55:18;;;;;;;1.20;1.13;;;17.40;98.00;;;;;;5069368;28;20821;-70
2021/06/07 07:57:50;;;;;;;1.40;1.30;;;17.50;98.00;;;;;;5069362;28;20973;-70
2021/06/07 08:00:18;;;;;;;1.17;1.10;;;17.40;98.00;;;;;;5071654;28;20461;-69
2021/06/07 08:02:45;;;;;;;1.30;1.10;;;17.30;98.00;;;;;;5068698;28;20834;-69
2021/06/07 08:05:12;;;;;;;1.73;1.50;;;17.20;98.00;;;;;;5069874;28;20485;-69
2021/06/07 08:07:39;;;;;;;1.63;1.40;;;17.20;98.00;;;;;;5068718;28;20506;-68
2021/06/07 08:10:07;;;;;;;1.63;1.30;;;17.30;98.00;;;;;;5071076;28;20484;-70
2021/06/07 08:12:37;;;;;;;2.70;2.17;;;17.20;98.00;;;;;;5068461;28;20495;-69
2021/06/07 08:15:05;;;;;;;1.50;1.40;;;17.10;98.00;;;;;;5071218;28;20514;-69
2021/06/07 08:17:32;;;;;;;2.13;1.97;;;17.20;98.00;;;;;;5068419;28;20527;-70
2021/06/07 08:19:58;;;;;;;1.60;1.50;;;17.20;98.00;;;;;;5069929;28;20465;-70
2021/06/07 08:22:24;;;;;;;1.37;1.27;;;17.20;98.00;;;;;;5067900;28;20947;-70
2021/06/07 08:24:51;;;;;;;1.73;1.40;;;17.20;98.00;;;;;;5070837;28;20457;-70
2021/06/07 08:27:17;;;;;;;1.53;1.43;;;17.20;98.00;;;;;;5068442;28;20943;-69
2021/06/07 08:29:45;;;;;;;1.70;1.50;;;17.20;98.00;;;;;;5070830;28;20955;-69
2021/06/07 08:32:12;;;;;;;1.13;1.10;;;17.10;98.00;;;;;;5067721;28;20492;-69
2021/06/07 08:34:38;;;;;;;1.23;1.03;;;17.10;98.00;;;;;;5071038;28;20519;-70
2021/06/07 08:37:06;;;;;;;2.03;1.90;;;17.10;98.00;;;;;;5070556;28;20994;-69
2021/06/07 08:39:32;;;;;;;1.60;1.50;;;17.20;98.00;;;;;;5069902;28;20877;-70
2021/06/07 08:42:01;;;;;;;1.30;1.27;;;17.20;98.00;;;;;;5070404;28;20552;-69
2021/06/07 08:44:27;;;;;;;2.20;1.47;;;17.30;98.00;;;;;;5067859;28;20468;-71
2021/06/07 08:46:57;;;;;;;2.40;1.47;;;17.40;98.00;;;;;;5070739;28;20539;-70
2021/06/07 08:49:25;;;;;;;2.97;1.60;;;17.40;98.00;;;;;;5068158;28;20511;-68
2021/06/07 08:51:52;;;;;;;1.20;1.17;;;17.40;98.00;;;;;;5069081;28;20867;-70
2021/06/07 08:54:19;;;;;;;1.47;1.40;;;17.40;98.00;;;;;;5068732;28;20514;-69
2021/06/07 08:56:45;;;;;;;1.97;1.20;;;17.30;98.00;;;;;;5070465;28;20930;-70
2021/06/07 08:59:12;;;;;;;1.30;1.20;;;17.40;98.00;;;;;;5068216;28;20460;-69
2021/06/07 09:01:39;;;;;;;4.03;2.10;;;17.40;98.00;;;;;;5070457;28;20456;-69
2021/06/07 09:04:14;;;;;;;1.50;1.37;;;17.50;98.00;;;;;;5068464;28;20453;-68
2021/06/07 09:06:43;;;;;;;1.60;1.53;;;17.50;98.00;;;;;;5070286;28;20989;-68
2021/06/07 09:09:12;;;;;;;1.30;1.10;;;17.50;98.00;;;;;;5067841;28;20461;-68
2021/06/07 09:11:44;;;;;;;3.20;1.33;;;17.40;98.00;;;;;;5070329;28;20453;-69
2021/06/07 09:14:21;;;;;;;1.63;1.50;;;17.40;98.00;;;;;;5068716;28;20452;-67
2021/06/07 09:16:48;;;;;;;2.03;1.77;;;17.50;98.00;;;;;;5069955;28;20492;-67
2021/06/07 09:19:25;;;;;;;1.20;1.10;;;17.60;98.00;;;;;;5067020;28;20559;-69
2021/06/07 09:21:55;;;;;;;1.50;1.40;;;17.70;98.00;;;;;;5069846;28;20472;-67
2021/06/07 09:24:22;;;;;;;1.00;0.90;;;17.70;98.00;;;;;;5067946;28;20500;-69
2021/06/07 09:26:49;;;;;;;3.67;1.83;;;17.70;98.00;;;;;;5065318;28;20474;-69
2021/06/07 09:29:36;;;;;;;1.00;1.00;;;17.70;98.00;;;;;;5056589;28;20452;-69
2021/06/07 09:32:05;;;;;;;1.10;1.10;;;17.60;98.00;;;;;;5069736;28;20536;-70
2021/06/07 09:34:35;;;;;;;2.50;1.80;;;17.50;98.00;;;;;;5067654;28;20551;-70
2021/06/07 09:37:06;;;;;;;1.77;1.53;;;17.50;98.00;;;;;;5069949;28;20476;-70
2021/06/07 09:39:33;;;;;;;1.60;1.50;;;17.50;98.00;;;;;;5067486;28;20453;-70
2021/06/07 09:42:02;;;;;;;2.13;1.73;;;17.50;98.00;;;;;;5069480;28;20456;-70
2021/06/07 09:44:32;;;;;;;1.43;1.40;;;17.60;98.00;;;;;;5068516;28;20587;-68
2021/06/07 09:47:24;;;;;;;1.50;1.20;;;17.60;98.00;;;;;;5069802;28;20466;-69
2021/06/07 09:49:55;;;;;;;1.50;1.27;;;17.80;98.00;;;;;;5061840;28;20456;-69
2021/06/07 09:52:24;;;;;;;1.63;1.57;;;17.80;98.00;;;;;;5067519;28;20470;-69
2021/06/07 09:55:08;;;;;;;1.27;1.23;;;17.70;98.00;;;;;;5070055;28;20461;-69
2021/06/07 09:57:50;;;;;;;2.30;1.60;;;17.80;98.00;;;;;;5066484;28;20892;-69
2021/06/07 10:00:38;;;;;;;2.13;1.90;;;17.80;98.00;;;;;;5069959;28;20461;-71
2021/06/07 10:03:16;;;;;;;3.10;2.00;;;17.70;98.00;;;;;;5067992;28;21139;-70
2021/06/07 10:05:44;;;;;;;2.60;1.10;;;17.70;98.00;;;;;;5069754;28;20461;-70
2021/06/07 10:08:11;;;;;;;1.30;1.20;;;17.70;98.00;;;;;;5067364;28;20530;-70
2021/06/07 10:10:37;;;;;;;1.77;1.60;;;17.80;98.00;;;;;;5069985;28;20491;-72
2021/06/07 10:13:08;;;;;;;3.00;1.80;;;17.80;98.00;;;;;;5067193;28;20496;-70
2021/06/07 10:15:36;;;;;;;1.80;1.73;;;17.90;98.00;;;;;;5068542;28;20857;-70
2021/06/07 10:18:04;;;;;;;1.50;1.40;;;17.90;98.00;;;;;;5068594;28;20456;-71
2021/06/07 10:20:47;;;;;;;1.10;1.03;;;17.80;98.00;;;;;;5073531;28;20460;-70
2021/06/07 10:23:16;;;;;;;1.10;1.10;;;17.80;98.00;;;;;;5070914;28;20499;-69
2021/06/07 10:25:43;;;;;;;1.67;1.43;;;17.80;98.00;;;;;;5073243;28;20456;-70
2021/06/07 10:28:10;;;;;;;2.30;1.87;;;17.80;98.00;;;;;;5070716;28;20547;-69
2021/06/07 10:30:41;;;;;;;1.43;1.37;;;17.80;98.00;;;;;;5073383;28;20526;-70
2021/06/07 10:33:33;;;;;;;1.77;1.63;;;17.80;98.00;;;;;;5071200;28;20460;-70
2021/06/07 10:36:39;;;;;;;1.30;1.30;;;17.70;98.00;;;;;;5053943;28;20568;-70
2021/06/07 10:39:29;;;;;;;3.37;1.97;;;17.80;98.00;;;;;;5070321;28;20453;-69
2021/06/07 10:42:24;;;;;;;1.47;1.37;;;17.80;98.00;;;;;;5072762;28;20460;-70
2021/06/07 10:45:03;;;;;;;2.33;1.40;;;17.80;98.00;;;;;;5072943;28;20448;-70
2021/06/07 10:47:42;;;;;;;1.77;1.67;;;17.80;98.00;;;;;;5070757;28;20456;-71
2021/06/07 10:50:12;;;;;;;2.27;1.47;;;17.90;98.00;;;;;;5072965;28;20495;-71
2021/06/07 10:52:49;;;;;;;1.30;1.20;;;17.90;98.00;;;;;;5068976;28;21049;-70
2021/06/07 10:55:23;;;;;;;1.90;1.70;;;18.00;98.00;;;;;;5073038;28;20796;-70
2021/06/07 10:57:52;;;;;;;3.07;1.67;;;18.00;98.00;;;;;;5070476;28;20889;-69
2021/06/07 11:00:25;;;;;;;2.63;1.37;;;18.10;98.00;;;;;;5072838;28;20461;-72
2021/06/07 11:02:53;;;;;;;2.07;1.13;;;18.00;98.00;;;;;;5070288;28;20484;-72
2021/06/07 11:05:22;;;;;;;1.30;1.20;;;18.10;98.00;;;;;;5072787;28;20460;-73
2021/06/07 11:08:04;;;;;;;1.60;1.30;;;18.20;98.00;;;;;;5070374;28;20453;-74
2021/06/07 11:10:35;;;;;;;1.30;1.30;;;18.50;98.00;;;;;;5072526;28;20460;-74
2021/06/07 11:13:03;;;;;;;1.43;1.37;;;18.70;98.00;;;;;;5070128;28;20464;-73
2021/06/07 11:15:34;;;;;;;4.10;1.33;;;19.00;98.00;;;;;;5071209;28;20453;-74
2021/06/07 11:18:40;;;;;;;2.07;1.40;;;19.20;98.00;;;;;;5069877;28;20485;-75
2021/06/07 11:21:26;;;;;;;2.87;1.77;;;19.40;98.00;;;;;;4990244;28;20444;-71
2021/06/07 11:23:53;;;;;;;1.40;1.30;;;19.60;98.00;;;;;;4988027;28;20512;-71
2021/06/07 11:26:22;;;;;;;1.90;1.40;;;19.70;98.00;;;;;;5049182;28;20527;-72
2021/06/07 11:28:50;;;;;;;1.80;1.67;;;19.60;98.00;;;;;;5070046;28;20462;-70
2021/06/07 11:31:47;;;;;;;3.30;2.10;;;19.40;98.00;;;;;;5071917;28;20464;-72
2021/06/07 11:34:17;;;;;;;2.70;2.07;;;19.30;98.00;;;;;;5024667;28;20457;-72
2021/06/07 11:36:47;;;;;;;2.07;1.70;;;19.40;98.00;;;;;;5071837;28;20579;-71
2021/06/07 11:39:15;;;;;;;1.87;1.63;;;19.20;98.00;;;;;;5069420;28;20469;-71
2021/06/07 11:41:51;;;;;;;1.30;1.23;;;19.30;98.00;;;;;;5071974;28;20453;-69
2021/06/07 11:44:18;;;;;;;2.00;1.90;;;19.40;98.00;;;;;;5069915;28;20527;-72
2021/06/07 11:46:55;;;;;;;1.50;1.43;;;19.20;98.00;;;;;;5072243;28;20497;-71
2021/06/07 11:49:22;;;;;;;1.87;1.70;;;19.10;98.00;;;;;;5069463;28;20936;-71
2021/06/07 11:52:13;;;;;;;1.80;1.73;;;18.90;98.00;;;;;;5071516;28;20453;-71
2021/06/07 11:54:51;;;;;;;1.60;1.50;;;18.80;98.00;;;;;;5069722;28;20827;-71
2021/06/07 11:57:24;;;;;;;1.80;1.73;;;18.90;98.00;;;;;;5071499;28;20492;-71
2021/06/07 11:59:59;;;;;;;2.13;1.40;;;18.90;98.00;;;;;;5068836;28;20449;-72
2021/06/07 12:02:27;;;;;;;1.47;1.20;;;18.90;98.00;;;;;;5071396;28;20996;-71
2021/06/07 12:04:55;;;;;;;1.90;1.63;;;19.00;98.00;;;;;;5069671;28;20472;-71
2021/06/07 12:07:22;;;;;;;4.20;2.00;;;19.10;98.00;;;;;;5070835;28;20456;-71
2021/06/07 12:09:52;;;;;;;1.83;1.73;;;19.20;98.00;;;;;;5069203;28;20460;-72
2021/06/07 12:12:21;;;;;;;1.47;1.33;;;19.20;98.00;;;;;;5071769;28;20615;-72
2021/06/07 12:14:50;;;;;;;2.17;1.67;;;19.20;98.00;;;;;;5069081;28;20484;-72
2021/06/07 12:17:20;;;;;;;2.77;1.73;;;19.20;98.00;;;;;;5071557;28;20477;-71
2021/06/07 12:19:51;;;;;;;1.87;1.60;;;19.20;98.00;;;;;;5068814;28;20456;-71
2021/06/07 12:22:32;;;;;;;2.30;1.63;;;19.30;98.00;;;;;;5071694;28;20464;-71
2021/06/07 12:25:14;;;;;;;1.63;1.60;;;19.50;98.00;;;;;;5070377;28;20531;-70
2021/06/07 12:30:28;;;;;;;1.50;1.40;;;19.70;98.00;;;;;;5069949;28;20433;-69
2021/06/07 12:32:56;;;;;;;1.67;1.60;;;19.80;98.00;;;;;;5069115;28;20978;-70
2021/06/07 12:35:23;;;;;;;2.47;1.73;;;19.90;98.00;;;;;;5071248;28;20457;-75
2021/06/07 12:37:51;;;;;;;1.87;1.30;;;20.10;98.00;;;;;;5069186;28;20489;-69
2021/06/07 12:40:32;;;;;;;2.80;1.50;;;20.10;98.00;;;;;;5071033;28;20461;-69
2021/06/07 12:43:12;;;;;;;1.87;1.77;;;20.00;98.00;;;;;;5068696;28;20543;-69
2021/06/07 12:45:40;;;;;;;1.60;1.27;;;20.10;98.00;;;;;;5070820;28;20461;-70
2021/06/07 12:48:16;;;;;;;1.30;1.20;;;20.10;98.00;;;;;;5068824;28;20511;-70
2021/06/07 12:50:44;;;;;;;2.53;1.40;;;20.20;98.00;;;;;;5070887;28;20519;-69
2021/06/07 12:53:12;;;;;;;2.27;1.40;;;20.40;98.00;;;;;;5067894;28;20549;-70
2021/06/07 12:55:40;;;;;;;3.47;1.87;;;20.50;98.00;;;;;;5071000;28;20480;-69
2021/06/07 12:58:11;;;;;;;1.23;1.20;;;20.50;98.00;;;;;;5068730;28;20487;-69
2021/06/07 13:00:42;;;;;;;1.23;1.20;;;20.40;98.00;;;;;;5070952;28;20468;-70
2021/06/07 13:03:24;;;;;;;1.60;1.50;;;20.40;98.00;;;;;;5067555;28;20507;-70